Terminal Aerodrome Forecast
Issued by NWS Portland, OR

Home | Current Version | Previous Version | Text Only | Print | Product List | Glossary On
Versions: 1 2 3 4 5 6 7 8 9 10 11 12 13 14 15 16 17 18 19 20 21 22 23 24 25 26 27 28 29 30 31
000
FTUS46 KPQR 130520
TAFEUG
TAF
KEUG 130520Z 1306/1406 23009KT P6SM FEW100
     FM131200 22003KT P6SM SCT008 BKN120 BKN250
     FM131300 22005KT P6SM BKN004 BKN120
     FM132200 27007KT P6SM SCT060 BKN150=

USA.gov is the U.S. government's official web portal to all federal, state and local government web resources and services.